| time (UTC) | temp F | wind direction | speed knots | gust knots | rain 1hr in | rain 24hr in | rain mn in | humidity % | barometer mb |
| 20260510142306 | 41 | 257 | 0.9 | 1.7 | 0.00 | 0.00 | 0.00 | 69 | 1019.1 |
| 20260510141800 | 41 | 309 | 3.5 | 4.3 | 0.00 | 0.00 | 0.00 | 67 | 1019.2 |
| 20260510141258 | 41 | 332 | 0.9 | 0.9 | 0.00 | 0.00 | 0.00 | 69 | 1018.9 |
| 20260510140755 | 41 | 298 | 0.9 | 0.9 | 0.00 | 0.00 | 0.00 | 68 | 1018.7 |
| 20260510140250 | 41 | 332 | 0.0 | 0.0 | 0.00 | 0.00 | 0.00 | 69 | 1018.8 |
| 20260510135744 | 41 | 327 | 0.9 | 0.9 | 0.00 | 0.00 | 0.00 | 69 | 1018.8 |
| 20260510135240 | 40 | 282 | 0.0 | 0.0 | 0.00 | 0.00 | 0.00 | 69 | 1018.7 |
| 20260510134738 | 40 | 21 | 3.5 | 4.3 | 0.00 | 0.00 | 0.00 | 69 | 1018.5 |
| 20260510134235 | 40 | 319 | 0.9 | 0.9 | 0.00 | 0.00 | 0.00 | 69 | 1018.7 |
| 20260510133731 | 40 | 317 | 1.7 | 1.7 | 0.00 | 0.00 | 0.00 | 69 | 1018.4 |
| 20260510133226 | 40 | 336 | 2.6 | 2.6 | 0.00 | 0.00 | 0.00 | 71 | 1018.5 |
| 20260510132723 | 40 | 269 | 2.6 | 4.3 | 0.00 | 0.00 | 0.00 | 70 | 1018.4 |
| 20260510132220 | 41 | 290 | 1.7 | 1.7 | 0.00 | 0.00 | 0.00 | 69 | 1018.5 |
| 20260510131717 | 40 | 2 | 0.9 | 1.7 | 0.00 | 0.00 | 0.00 | 72 | 1018.5 |
| 20260510131215 | 41 | 301 | 0.9 | 0.9 | 0.00 | 0.00 | 0.00 | 73 | 1018.3 |
| 20260510130711 | 41 | 300 | 1.7 | 2.6 | 0.00 | 0.00 | 0.00 | 71 | 1018.3 |
| 20260510130209 | 40 | 241 | 2.6 | 2.6 | 0.00 | 0.00 | 0.00 | 75 | 1018.2 |
| 20260510125704 | 39 | 295 | 1.7 | 1.7 | 0.00 | 0.00 | 0.00 | 76 | 1018.2 |
| 20260510125200 | 40 | 241 | 0.9 | 1.7 | 0.00 | 0.00 | 0.00 | 77 | 1018.2 |
| 20260510124657 | 40 | 304 | 1.7 | 1.7 | 0.00 | 0.00 | 0.00 | 76 | 1018.2 |
| 20260510124154 | 40 | 278 | 0.9 | 1.7 | 0.00 | 0.00 | 0.00 | 77 | 1017.8 |
| 20260510123649 | 40 | 322 | 0.0 | 0.0 | 0.00 | 0.00 | 0.00 | 78 | 1018.0 |
| 20260510123146 | 39 | 307 | 7.0 | 8.7 | 0.00 | 0.00 | 0.00 | 78 | 1017.8 |
| 20260510122642 | 39 | 305 | 1.7 | 1.7 | 0.00 | 0.00 | 0.00 | 79 | 1017.6 |
| 20260510122138 | 38 | 61 | 0.0 | 0.9 | 0.00 | 0.00 | 0.00 | 82 | 1017.6 |
| 20260510121635 | 37 | 297 | 0.9 | 1.7 | 0.00 | 0.00 | 0.00 | 84 | 1017.6 |
| 20260510121132 | 37 | 25 | 0.9 | 1.7 | 0.00 | 0.00 | 0.00 | 84 | 1017.7 |
| 20260510120630 | 37 | 351 | 0.9 | 0.9 | 0.00 | 0.00 | 0.00 | 86 | 1017.5 |
| 20260510120125 | 36 | 316 | 0.0 | 0.9 | 0.00 | 0.00 | 0.00 | 86 | 1017.4 |
| 20260510115622 | 36 | 275 | 0.0 | 0.9 | 0.00 | 0.00 | 0.00 | 86 | 1017.3 |
| 20260510115120 | 36 | 292 | 1.7 | 1.7 | 0.00 | 0.00 | 0.00 | 86 | 1017.0 |
| 20260510114615 | 36 | 286 | 2.6 | 2.6 | 0.00 | 0.00 | 0.00 | 86 | 1017.1 |
| 20260510114111 | 36 | 264 | 0.9 | 0.9 | 0.00 | 0.00 | 0.00 | 87 | 1017.1 |
| 20260510113607 | 36 | 307 | 0.9 | 0.9 | 0.00 | 0.00 | 0.00 | 87 | 1016.8 |
| 20260510113105 | 36 | 313 | 1.7 | 1.7 | 0.00 | 0.00 | 0.00 | 88 | 1016.7 |
| 20260510112601 | 36 | 307 | 1.7 | 2.6 | 0.00 | 0.00 | 0.00 | 88 | 1016.3 |
| 20260510112057 | 36 | 284 | 2.6 | 4.3 | 0.00 | 0.00 | 0.00 | 89 | 1016.4 |
| 20260510111554 | 36 | 349 | 3.5 | 5.2 | 0.00 | 0.00 | 0.00 | 89 | 1016.5 |
| 20260510111050 | 36 | 285 | 2.6 | 4.3 | 0.00 | 0.00 | 0.00 | 90 | 1016.5 |
| 20260510110546 | 36 | 315 | 2.6 | 2.6 | 0.00 | 0.00 | 0.00 | 90 | 1016.4 |
| 20260510110043 | 36 | 304 | 0.9 | 0.9 | 0.00 | 0.00 | 0.00 | 90 | 1016.2 |
| 20260510105538 | 35 | 291 | 0.9 | 1.7 | 0.00 | 0.00 | 0.00 | 90 | 1016.2 |
| 20260510105033 | 35 | 294 | 0.9 | 0.9 | 0.00 | 0.00 | 0.00 | 90 | 1016.3 |
| 20260510104530 | 35 | 292 | 0.0 | 0.0 | 0.00 | 0.00 | 0.00 | 90 | 1016.3 |
| 20260510104026 | 35 | 248 | 0.9 | 0.9 | 0.00 | 0.00 | 0.00 | 90 | 1016.2 |
| 20260510103524 | 35 | 308 | 0.0 | 0.0 | 0.00 | 0.00 | 0.00 | 90 | 1016.2 |
| 20260510103020 | 35 | 284 | 0.0 | 0.0 | 0.00 | 0.00 | 0.00 | 90 | 1015.8 |
| 20260510102516 | 36 | 294 | 0.9 | 0.9 | 0.00 | 0.00 | 0.00 | 90 | 1015.8 |
| 20260510102012 | 36 | 239 | 0.0 | 0.9 | 0.00 | 0.00 | 0.00 | 90 | 1016.1 |
| 20260510101509 | 36 | 343 | 2.6 | 2.6 | 0.00 | 0.00 | 0.00 | 90 | 1015.9 |
| 20260510101008 | 36 | 329 | 1.7 | 2.6 | 0.00 | 0.00 | 0.00 | 90 | 1015.8 |
| 20260510100504 | 36 | 281 | 0.0 | 0.9 | 0.00 | 0.00 | 0.00 | 89 | 1015.7 |
| 20260510100001 | 36 | 326 | 0.9 | 0.9 | 0.00 | 0.00 | 0.00 | 89 | 1015.6 |
| 20260510095456 | 36 | 296 | 0.9 | 1.7 | 0.00 | 0.00 | 0.00 | 89 | 1015.5 |
| 20260510094955 | 36 | 298 | 2.6 | 2.6 | 0.00 | 0.00 | 0.00 | 90 | 1015.5 |
| 20260510094450 | 36 | 313 | 1.7 | 4.3 | 0.00 | 0.00 | 0.00 | 90 | 1015.3 |
| 20260510093947 | 36 | 269 | 0.9 | 0.9 | 0.00 | 0.00 | 0.00 | 90 | 1015.3 |
| 20260510093442 | 36 | 340 | 0.9 | 0.9 | 0.00 | 0.00 | 0.00 | 90 | 1015.4 |
| 20260510092939 | 36 | 310 | 2.6 | 2.6 | 0.00 | 0.00 | 0.00 | 90 | 1015.4 |
| 20260510092437 | 36 | 308 | 0.0 | 0.9 | 0.00 | 0.00 | 0.00 | 90 | 1015.2 |
| 20260510091936 | 36 | 336 | 1.7 | 1.7 | 0.00 | 0.00 | 0.00 | 90 | 1015.0 |
| 20260510091433 | 36 | 334 | 0.0 | 0.0 | 0.00 | 0.00 | 0.00 | 90 | 1015.0 |
| 20260510090929 | 36 | 299 | 2.6 | 4.3 | 0.00 | 0.00 | 0.00 | 90 | 1015.2 |
| 20260510090426 | 36 | 311 | 0.9 | 1.7 | 0.00 | 0.00 | 0.00 | 90 | 1015.0 |
| 20260510085922 | 36 | 299 | 1.7 | 1.7 | 0.00 | 0.00 | 0.00 | 90 | 1015.0 |
| 20260510085418 | 35 | 300 | 3.5 | 4.3 | 0.00 | 0.00 | 0.00 | 90 | 1015.1 |
| 20260510084913 | 35 | 302 | 2.6 | 4.3 | 0.00 | 0.00 | 0.00 | 90 | 1015.0 |
| 20260510084411 | 35 | 302 | 0.9 | 0.9 | 0.00 | 0.00 | 0.00 | 91 | 1015.0 |
| 20260510083907 | 35 | 332 | 0.9 | 1.7 | 0.00 | 0.00 | 0.00 | 90 | 1014.8 |
| 20260510083403 | 36 | 300 | 0.9 | 1.7 | 0.00 | 0.00 | 0.00 | 90 | 1014.9 |
| 20260510082859 | 36 | 322 | 2.6 | 2.6 | 0.00 | 0.00 | 0.00 | 90 | 1015.1 |
| 20260510082357 | 36 | 340 | 1.7 | 2.6 | 0.00 | 0.00 | 0.00 | 90 | 1014.6 |
| 20260510081855 | 36 | 314 | 2.6 | 2.6 | 0.00 | 0.00 | 0.00 | 90 | 1014.8 |
| 20260510081351 | 36 | 298 | 0.9 | 0.9 | 0.00 | 0.00 | 0.00 | 89 | 1014.7 |
| 20260510080848 | 36 | 333 | 1.7 | 2.6 | 0.00 | 0.00 | 0.00 | 89 | 1014.7 |
| 20260510080342 | 36 | 320 | 0.9 | 0.9 | 0.00 | 0.00 | 0.00 | 89 | 1014.8 |
| 20260510075839 | 36 | 315 | 1.7 | 1.7 | 0.00 | 0.00 | 0.00 | 89 | 1014.6 |
| 20260510075337 | 36 | 291 | 0.9 | 1.7 | 0.00 | 0.00 | 0.00 | 89 | 1014.5 |
| 20260510074828 | 36 | 284 | 0.9 | 0.9 | 0.00 | 0.00 | 0.00 | 89 | 1014.5 |
| 20260510074326 | 36 | 297 | 1.7 | 1.7 | 0.00 | 0.00 | 0.00 | 88 | 1014.5 |
| 20260510073822 | 36 | 321 | 2.6 | 4.3 | 0.00 | 0.00 | 0.00 | 88 | 1014.5 |
| 20260510073318 | 36 | 322 | 1.7 | 2.6 | 0.00 | 0.00 | 0.00 | 88 | 1014.5 |
| 20260510072814 | 36 | 347 | 5.2 | 6.1 | 0.00 | 0.00 | 0.00 | 88 | 1014.5 |
| 20260510072311 | 36 | 283 | 2.6 | 5.2 | 0.00 | 0.00 | 0.00 | 88 | 1014.3 |
| 20260510071807 | 37 | 293 | 2.6 | 2.6 | 0.00 | 0.00 | 0.00 | 87 | 1014.5 |
| 20260510071303 | 36 | 301 | 2.6 | 2.6 | 0.00 | 0.00 | 0.00 | 88 | 1014.3 |
| 20260510070803 | 36 | 334 | 1.7 | 1.7 | 0.00 | 0.00 | 0.00 | 88 | 1014.5 |
| 20260510070259 | 36 | 308 | 3.5 | 5.2 | 0.00 | 0.00 | 0.00 | 89 | 1014.5 |
| 20260510065758 | 36 | 293 | 0.9 | 0.9 | 0.00 | 0.00 | 0.00 | 89 | 1014.3 |
| 20260510065255 | 36 | 311 | 1.7 | 1.7 | 0.00 | 0.00 | 0.00 | 89 | 1014.4 |
| 20260510064752 | 36 | 289 | 2.6 | 4.3 | 0.00 | 0.00 | 0.00 | 90 | 1014.3 |
| 20260510064250 | 35 | 333 | 2.6 | 2.6 | 0.00 | 0.00 | 0.00 | 90 | 1014.4 |
| 20260510063745 | 35 | 329 | 2.6 | 4.3 | 0.00 | 0.00 | 0.00 | 90 | 1014.3 |
| 20260510063242 | 35 | 307 | 1.7 | 1.7 | 0.00 | 0.00 | 0.00 | 89 | 1014.3 |
| 20260510062739 | 35 | 315 | 0.9 | 1.7 | 0.00 | 0.00 | 0.00 | 89 | 1014.4 |
| 20260510062235 | 36 | 294 | 0.9 | 0.9 | 0.00 | 0.00 | 0.00 | 89 | 1014.2 |
| 20260510061730 | 36 | 308 | 1.7 | 1.7 | 0.00 | 0.00 | 0.00 | 89 | 1014.2 |
| 20260510061228 | 36 | 316 | 0.9 | 0.9 | 0.00 | 0.00 | 0.00 | 88 | 1014.2 |
| 20260510060724 | 36 | 288 | 0.9 | 0.9 | 0.00 | 0.00 | 0.00 | 88 | 1014.2 |
| 20260510060221 | 36 | 333 | 2.6 | 4.3 | 0.00 | 0.00 | 0.00 | 88 | 1014.2 |
| 20260510055717 | 36 | 310 | 0.9 | 0.9 | 0.00 | 0.00 | 0.00 | 88 | 1014.3 |
| 20260510055216 | 36 | 295 | 0.9 | 0.9 | 0.00 | 0.00 | 0.00 | 88 | 1014.1 |
| 20260510054715 | 36 | 290 | 0.0 | 0.9 | 0.00 | 0.00 | 0.00 | 89 | 1014.1 |
| 20260510054211 | 36 | 297 | 0.0 | 0.9 | 0.00 | 0.00 | 0.00 | 89 | 1014.3 |
| 20260510053706 | 35 | 285 | 0.9 | 0.9 | 0.00 | 0.00 | 0.00 | 90 | 1014.2 |
| 20260510053202 | 35 | 292 | 0.9 | 0.9 | 0.00 | 0.00 | 0.00 | 90 | 1014.4 |
| 20260510052658 | 36 | 292 | 0.9 | 0.9 | 0.00 | 0.00 | 0.00 | 89 | 1014.3 |
| 20260510052155 | 36 | 295 | 0.9 | 0.9 | 0.00 | 0.00 | 0.00 | 89 | 1014.1 |
| 20260510051650 | 36 | 307 | 0.0 | 0.9 | 0.00 | 0.00 | 0.00 | 89 | 1013.8 |
| 20260510051147 | 36 | 300 | 0.0 | 0.9 | 0.00 | 0.00 | 0.00 | 88 | 1014.1 |
| 20260510050644 | 37 | 298 | 0.9 | 1.7 | 0.00 | 0.00 | 0.00 | 88 | 1013.8 |
| 20260510050142 | 37 | 290 | 0.0 | 0.9 | 0.00 | 0.00 | 0.00 | 88 | 1014.0 |
| 20260510045638 | 37 | 324 | 0.9 | 1.7 | 0.00 | 0.00 | 0.00 | 88 | 1013.7 |
| 20260510045135 | 37 | 320 | 0.9 | 0.9 | 0.00 | 0.00 | 0.00 | 87 | 1013.8 |
| 20260510044631 | 37 | 329 | 0.9 | 1.7 | 0.00 | 0.00 | 0.00 | 87 | 1013.8 |
| 20260510044129 | 37 | 296 | 0.9 | 0.9 | 0.00 | 0.00 | 0.00 | 87 | 1013.7 |
| 20260510043624 | 38 | 277 | 0.9 | 0.9 | 0.00 | 0.00 | 0.00 | 87 | 1013.7 |
| 20260510043121 | 38 | 283 | 0.0 | 0.9 | 0.00 | 0.00 | 0.00 | 87 | 1013.4 |
| 20260510042619 | 37 | 294 | 0.9 | 0.9 | 0.00 | 0.00 | 0.00 | 88 | 1013.4 |
| 20260510042114 | 37 | 296 | 0.9 | 1.7 | 0.00 | 0.00 | 0.00 | 88 | 1013.7 |
| 20260510041612 | 37 | 298 | 0.0 | 0.9 | 0.00 | 0.00 | 0.00 | 88 | 1013.6 |
| 20260510041109 | 37 | 293 | 0.9 | 0.9 | 0.00 | 0.00 | 0.00 | 89 | 1013.8 |
| 20260510040606 | 37 | 269 | 1.7 | 1.7 | 0.00 | 0.00 | 0.00 | 89 | 1013.5 |
| 20260510035558 | 37 | 253 | 2.6 | 4.3 | 0.00 | 0.00 | 0.00 | 89 | 1013.6 |
| 20260510035058 | 37 | 295 | 0.9 | 0.9 | 0.00 | 0.00 | 0.00 | 89 | 1013.4 |
| 20260510034556 | 37 | 299 | 0.9 | 0.9 | 0.00 | 0.00 | 0.00 | 89 | 1013.4 |
| 20260510034053 | 37 | 294 | 0.0 | 0.9 | 0.00 | 0.00 | 0.00 | 89 | 1013.4 |
| 20260510033549 | 37 | 295 | 0.0 | 0.0 | 0.00 | 0.00 | 0.00 | 88 | 1013.4 |
| 20260510033047 | 37 | 326 | 0.9 | 0.9 | 0.00 | 0.00 | 0.00 | 88 | 1013.5 |
| 20260510032543 | 38 | 301 | 0.9 | 0.9 | 0.00 | 0.00 | 0.00 | 88 | 1013.2 |
| 20260510032039 | 37 | 296 | 0.0 | 0.9 | 0.00 | 0.00 | 0.00 | 88 | 1013.1 |
| 20260510031539 | 37 | 293 | 0.0 | 0.9 | 0.00 | 0.00 | 0.00 | 89 | 1013.2 |
| 20260510031035 | 37 | 286 | 0.9 | 0.9 | 0.00 | 0.00 | 0.00 | 89 | 1013.4 |
| 20260510030530 | 37 | 301 | 0.9 | 0.9 | 0.00 | 0.00 | 0.00 | 90 | 1013.4 |
| 20260510030028 | 37 | 296 | 0.9 | 0.9 | 0.00 | 0.00 | 0.00 | 90 | 1013.4 |
| 20260510025525 | 37 | 292 | 0.0 | 0.9 | 0.00 | 0.00 | 0.00 | 91 | 1013.5 |
| 20260510025023 | 37 | 300 | 0.0 | 0.0 | 0.00 | 0.00 | 0.00 | 91 | 1013.6 |
| 20260510024519 | 37 | 301 | 2.6 | 2.6 | 0.00 | 0.00 | 0.00 | 91 | 1013.6 |
| 20260510024015 | 37 | 301 | 2.6 | 4.3 | 0.00 | 0.00 | 0.00 | 91 | 1013.5 |
| 20260510023511 | 37 | 264 | 0.9 | 1.7 | 0.00 | 0.00 | 0.00 | 91 | 1013.4 |
| 20260510023009 | 38 | 317 | 0.9 | 1.7 | 0.00 | 0.00 | 0.00 | 88 | 1013.5 |
| 20260510022508 | 40 | 304 | 2.6 | 4.3 | 0.00 | 0.00 | 0.00 | 80 | 1013.6 |
| 20260510022008 | 39 | 305 | 0.0 | 0.9 | 0.00 | 0.00 | 0.00 | 77 | 1013.1 |
| 20260510021505 | 39 | 292 | 0.0 | 0.0 | 0.00 | 0.00 | 0.00 | 78 | 1013.3 |
| 20260510021002 | 39 | 294 | 0.0 | 0.0 | 0.00 | 0.00 | 0.00 | 77 | 1012.9 |
| 20260510020456 | 39 | 295 | 0.0 | 0.9 | 0.00 | 0.00 | 0.00 | 77 | 1012.8 |
| 20260510015952 | 39 | 285 | 0.0 | 0.0 | 0.00 | 0.00 | 0.00 | 77 | 1012.6 |
| 20260510015448 | 39 | 297 | 0.0 | 0.0 | 0.00 | 0.00 | 0.00 | 77 | 1012.6 |
| 20260510014943 | 40 | 299 | 0.9 | 0.9 | 0.00 | 0.00 | 0.00 | 76 | 1012.5 |
| 20260510014441 | 40 | 293 | 0.0 | 0.0 | 0.00 | 0.00 | 0.00 | 76 | 1012.6 |
| 20260510013938 | 40 | 281 | 0.0 | 0.0 | 0.00 | 0.00 | 0.00 | 76 | 1012.4 |
| 20260510013432 | 40 | 287 | 0.0 | 0.0 | 0.00 | 0.00 | 0.00 | 76 | 1012.2 |
| 20260510012928 | 41 | 286 | 0.0 | 0.0 | 0.00 | 0.00 | 0.00 | 76 | 1012.0 |
| 20260510012423 | 41 | 305 | 0.9 | 0.9 | 0.00 | 0.00 | 0.00 | 76 | 1012.0 |
| 20260510011918 | 41 | 286 | 0.0 | 0.0 | 0.00 | 0.00 | 0.00 | 75 | 1012.1 |
| 20260510011413 | 41 | 285 | 0.9 | 0.9 | 0.00 | 0.00 | 0.00 | 74 | 1011.9 |
| 20260510010909 | 42 | 296 | 1.7 | 2.6 | 0.00 | 0.00 | 0.00 | 74 | 1011.9 |
| 20260510010407 | 41 | 305 | 2.6 | 4.3 | 0.00 | 0.00 | 0.00 | 75 | 1011.8 |
| 20260510005903 | 41 | 281 | 0.0 | 0.0 | 0.00 | 0.00 | 0.00 | 76 | 1011.8 |
| 20260510005400 | 41 | 299 | 1.7 | 1.7 | 0.00 | 0.00 | 0.00 | 76 | 1011.6 |
| 20260510004857 | 41 | 287 | 0.0 | 0.9 | 0.00 | 0.00 | 0.00 | 76 | 1011.6 |
| 20260510004355 | 41 | 288 | 1.7 | 1.7 | 0.00 | 0.00 | 0.00 | 76 | 1011.5 |
| 20260510003852 | 41 | 292 | 1.7 | 1.7 | 0.00 | 0.00 | 0.00 | 76 | 1011.8 |
| 20260510003350 | 41 | 276 | 0.9 | 1.7 | 0.00 | 0.00 | 0.00 | 77 | 1011.5 |
| 20260510002848 | 42 | 329 | 1.7 | 1.7 | 0.00 | 0.00 | 0.00 | 78 | 1011.4 |
| 20260510002346 | 42 | 313 | 0.9 | 0.9 | 0.00 | 0.00 | 0.00 | 79 | 1011.4 |
| 20260510001842 | 41 | 269 | 0.9 | 0.9 | 0.00 | 0.00 | 0.00 | 80 | 1011.4 |
| 20260510001340 | 41 | 315 | 1.7 | 1.7 | 0.00 | 0.00 | 0.00 | 82 | 1011.7 |
| 20260510000836 | 42 | 280 | 3.5 | 6.1 | 0.00 | 0.00 | 0.00 | 79 | 1011.7 |
| 20260510000333 | 44 | 283 | 0.9 | 0.9 | 0.00 | 0.00 | 0.00 | 68 | 1011.6 |
| 20260509235830 | 47 | 300 | 6.1 | 9.6 | 0.00 | 0.00 | 0.00 | 51 | 1011.0 |
| 20260509235326 | 47 | 328 | 2.6 | 2.6 | 0.00 | 0.00 | 0.00 | 50 | 1010.6 |
| 20260509234822 | 47 | 311 | 1.7 | 1.7 | 0.00 | 0.00 | 0.00 | 50 | 1010.6 |
| 20260509234319 | 47 | 313 | 1.7 | 1.7 | 0.00 | 0.00 | 0.00 | 50 | 1010.2 |
| 20260509233817 | 46 | 315 | 1.7 | 4.3 | 0.00 | 0.00 | 0.00 | 50 | 1010.1 |
| 20260509233314 | 47 | 280 | 4.3 | 7.0 | 0.00 | 0.00 | 0.00 | 49 | 1010.3 |
| 20260509232810 | 47 | 268 | 2.6 | 2.6 | 0.00 | 0.00 | 0.00 | 50 | 1010.3 |
| 20260509232308 | 48 | 324 | 1.7 | 2.6 | 0.00 | 0.00 | 0.00 | 50 | 1010.0 |
| 20260509231804 | 47 | 326 | 0.0 | 0.0 | 0.00 | 0.00 | 0.00 | 52 | 1010.0 |
| 20260509231301 | 47 | 296 | 0.9 | 1.7 | 0.00 | 0.00 | 0.00 | 52 | 1010.1 |
| 20260509230759 | 47 | 249 | 0.9 | 1.7 | 0.00 | 0.00 | 0.00 | 52 | 1010.2 |
| 20260509230256 | 48 | 338 | 0.9 | 1.7 | 0.00 | 0.00 | 0.00 | 51 | 1010.1 |
| 20260509225751 | 48 | 244 | 1.7 | 2.6 | 0.00 | 0.00 | 0.00 | 50 | 1010.2 |
| 20260509225247 | 49 | 346 | 1.7 | 2.6 | 0.00 | 0.00 | 0.00 | 50 | 1010.1 |
| 20260509224743 | 49 | 296 | 4.3 | 5.2 | 0.00 | 0.00 | 0.00 | 49 | 1010.0 |
| 20260509224241 | 50 | 282 | 0.9 | 0.9 | 0.00 | 0.00 | 0.00 | 50 | 1009.9 |
| 20260509223737 | 47 | 301 | 0.9 | 1.7 | 0.00 | 0.00 | 0.00 | 52 | 1009.9 |
| 20260509223235 | 47 | 294 | 0.9 | 1.7 | 0.00 | 0.00 | 0.00 | 53 | 1009.9 |
| 20260509222731 | 47 | 290 | 0.0 | 0.0 | 0.00 | 0.00 | 0.00 | 52 | 1009.7 |
| 20260509222226 | 47 | 269 | 1.7 | 2.6 | 0.00 | 0.00 | 0.00 | 51 | 1009.8 |
| 20260509221722 | 48 | 307 | 2.6 | 4.3 | 0.00 | 0.00 | 0.00 | 51 | 1009.7 |
| 20260509221219 | 47 | 347 | 1.7 | 2.6 | 0.00 | 0.00 | 0.00 | 51 | 1009.1 |
| 20260509220715 | 48 | 300 | 0.9 | 1.7 | 0.00 | 0.00 | 0.00 | 50 | 1009.5 |
| 20260509220212 | 50 | 301 | 2.6 | 4.3 | 0.00 | 0.00 | 0.00 | 47 | 1009.5 |
| 20260509215707 | 50 | 316 | 2.6 | 2.6 | 0.00 | 0.00 | 0.00 | 46 | 1009.5 |
| 20260509215204 | 50 | 288 | 0.9 | 1.7 | 0.00 | 0.00 | 0.00 | 49 | 1009.6 |
| 20260509214701 | 47 | 285 | 1.7 | 1.7 | 0.00 | 0.00 | 0.00 | 53 | 1009.6 |
| 20260509214158 | 47 | 238 | 2.6 | 2.6 | 0.00 | 0.00 | 0.00 | 54 | 1009.6 |
| 20260509213655 | 48 | 286 | 0.9 | 1.7 | 0.00 | 0.00 | 0.00 | 54 | 1009.5 |
| 20260509213150 | 49 | 16 | 2.6 | 2.6 | 0.00 | 0.00 | 0.00 | 52 | 1009.3 |
| 20260509212648 | 48 | 316 | 1.7 | 1.7 | 0.00 | 0.00 | 0.00 | 54 | 1009.3 |
| 20260509212144 | 46 | 343 | 4.3 | 7.0 | 0.00 | 0.00 | 0.00 | 56 | 1009.3 |
| 20260509211635 | 46 | 244 | 2.6 | 4.3 | 0.00 | 0.00 | 0.00 | 57 | 1009.3 |
| 20260509211132 | 47 | 319 | 5.2 | 6.1 | 0.00 | 0.00 | 0.00 | 56 | 1009.3 |
| 20260509210629 | 48 | 345 | 2.6 | 2.6 | 0.00 | 0.00 | 0.00 | 54 | 1009.5 |
| 20260509210126 | 47 | 298 | 0.0 | 0.9 | 0.00 | 0.00 | 0.00 | 56 | 1009.2 |
| 20260509205621 | 46 | 14 | 1.7 | 2.6 | 0.00 | 0.00 | 0.00 | 58 | 1009.0 |
| 20260509205115 | 46 | 295 | 2.6 | 4.3 | 0.00 | 0.00 | 0.00 | 57 | 1009.2 |
| 20260509204611 | 46 | 273 | 3.5 | 4.3 | 0.00 | 0.00 | 0.00 | 54 | 1009.1 |
| 20260509204108 | 46 | 263 | 5.2 | 7.8 | 0.00 | 0.00 | 0.00 | 53 | 1008.9 |
| 20260509203604 | 46 | 294 | 1.7 | 2.6 | 0.00 | 0.00 | 0.00 | 53 | 1009.0 |
| 20260509203103 | 46 | 275 | 0.9 | 0.9 | 0.00 | 0.00 | 0.00 | 56 | 1008.8 |
| 20260509202557 | 48 | 48 | 2.6 | 5.2 | 0.00 | 0.00 | 0.00 | 50 | 1008.7 |
| 20260509202052 | 48 | 328 | 4.3 | 6.1 | 0.00 | 0.00 | 0.00 | 47 | 1008.6 |
| 20260509201548 | 49 | 0 | 4.3 | 5.2 | 0.00 | 0.00 | 0.00 | 46 | 1008.1 |
| 20260509201046 | 49 | 315 | 2.6 | 4.3 | 0.00 | 0.00 | 0.00 | 47 | 1008.4 |
| 20260509200544 | 48 | 308 | 2.6 | 4.3 | 0.00 | 0.00 | 0.00 | 49 | 1008.3 |
| 20260509200042 | 52 | 332 | 1.7 | 2.6 | 0.00 | 0.00 | 0.00 | 48 | 1008.2 |
| 20260509195537 | 50 | 255 | 2.6 | 2.6 | 0.00 | 0.00 | 0.00 | 47 | 1008.2 |
| 20260509195037 | 48 | 305 | 0.9 | 0.9 | 0.00 | 0.00 | 0.00 | 49 | 1008.2 |
| 20260509194532 | 48 | 313 | 3.5 | 4.3 | 0.00 | 0.00 | 0.00 | 48 | 1008.2 |
| 20260509194030 | 48 | 272 | 2.6 | 2.6 | 0.00 | 0.00 | 0.00 | 48 | 1008.1 |
| 20260509193524 | 48 | 24 | 1.7 | 1.7 | 0.00 | 0.00 | 0.00 | 48 | 1008.2 |
| 20260509193021 | 48 | 302 | 0.9 | 0.9 | 0.00 | 0.00 | 0.00 | 50 | 1008.2 |
| 20260509192518 | 47 | 287 | 0.9 | 0.9 | 0.00 | 0.00 | 0.00 | 49 | 1008.0 |
| 20260509192013 | 47 | 286 | 0.9 | 1.7 | 0.00 | 0.00 | 0.00 | 49 | 1007.9 |
| 20260509191507 | 47 | 310 | 6.1 | 8.7 | 0.00 | 0.00 | 0.00 | 47 | 1007.9 |
| 20260509191004 | 49 | 240 | 3.5 | 5.2 | 0.00 | 0.00 | 0.00 | 46 | 1007.6 |
| 20260509190500 | 50 | 264 | 1.7 | 1.7 | 0.00 | 0.00 | 0.00 | 46 | 1007.8 |
| 20260509185959 | 48 | 326 | 0.9 | 1.7 | 0.00 | 0.00 | 0.00 | 49 | 1007.8 |
| 20260509185455 | 47 | 356 | 3.5 | 5.2 | 0.00 | 0.00 | 0.00 | 48 | 1007.4 |
| 20260509184952 | 46 | 304 | 4.3 | 6.1 | 0.00 | 0.00 | 0.00 | 49 | 1007.5 |
| 20260509184450 | 46 | 264 | 5.2 | 7.0 | 0.00 | 0.00 | 0.00 | 49 | 1007.5 |
| 20260509183947 | 47 | 327 | 1.7 | 1.7 | 0.00 | 0.00 | 0.00 | 50 | 1007.7 |
| 20260509183446 | 47 | 291 | 4.3 | 7.8 | 0.00 | 0.00 | 0.00 | 50 | 1007.4 |
| 20260509182943 | 46 | 315 | 0.9 | 1.7 | 0.00 | 0.00 | 0.00 | 51 | 1007.4 |
| 20260509182439 | 46 | 341 | 1.7 | 2.6 | 0.00 | 0.00 | 0.00 | 50 | 1007.3 |
| 20260509181937 | 46 | 304 | 1.7 | 1.7 | 0.00 | 0.00 | 0.00 | 51 | 1007.0 |
| 20260509181430 | 46 | 317 | 2.6 | 6.1 | 0.00 | 0.00 | 0.00 | 52 | 1007.1 |
| 20260509180927 | 47 | 346 | 1.7 | 4.3 | 0.00 | 0.00 | 0.00 | 51 | 1007.0 |
| 20260509180422 | 48 | 216 | 1.7 | 1.7 | 0.00 | 0.00 | 0.00 | 50 | 1007.1 |
| 20260509175919 | 46 | 269 | 0.9 | 1.7 | 0.00 | 0.00 | 0.00 | 52 | 1006.9 |
| 20260509175415 | 46 | 291 | 0.9 | 0.9 | 0.00 | 0.00 | 0.00 | 52 | 1006.9 |
| 20260509174911 | 46 | 329 | 4.3 | 7.8 | 0.00 | 0.00 | 0.00 | 53 | 1006.8 |
| 20260509174407 | 46 | 278 | 2.6 | 4.3 | 0.00 | 0.00 | 0.00 | 54 | 1007.0 |
| 20260509173903 | 46 | 290 | 2.6 | 4.3 | 0.00 | 0.00 | 0.00 | 53 | 1006.8 |
| 20260509173357 | 47 | 306 | 3.5 | 4.3 | 0.00 | 0.00 | 0.00 | 53 | 1006.6 |
| 20260509172854 | 47 | 319 | 1.7 | 1.7 | 0.00 | 0.00 | 0.00 | 55 | 1006.7 |
| 20260509172351 | 47 | 334 | 4.3 | 5.2 | 0.00 | 0.00 | 0.00 | 52 | 1006.5 |
| 20260509171847 | 48 | 359 | 2.6 | 2.6 | 0.00 | 0.00 | 0.00 | 53 | 1006.3 |
| 20260509171343 | 47 | 287 | 1.7 | 1.7 | 0.00 | 0.00 | 0.00 | 54 | 1006.3 |
| 20260509170839 | 47 | 277 | 0.9 | 1.7 | 0.00 | 0.00 | 0.00 | 56 | 1006.2 |
| 20260509170335 | 46 | 322 | 3.5 | 4.3 | 0.00 | 0.00 | 0.00 | 58 | 1006.3 |
| 20260509165830 | 47 | 289 | 5.2 | 6.1 | 0.00 | 0.00 | 0.00 | 56 | 1005.7 |
| 20260509165325 | 49 | 236 | 5.2 | 6.1 | 0.00 | 0.00 | 0.00 | 54 | 1005.9 |
| 20260509164821 | 47 | 317 | 4.3 | 6.1 | 0.00 | 0.00 | 0.00 | 57 | 1005.6 |
| 20260509164317 | 48 | 303 | 2.6 | 4.3 | 0.00 | 0.00 | 0.00 | 56 | 1005.6 |
| 20260509163814 | 47 | 348 | 2.6 | 2.6 | 0.00 | 0.00 | 0.00 | 57 | 1005.4 |
| 20260509163310 | 48 | 236 | 3.5 | 5.2 | 0.00 | 0.00 | 0.00 | 55 | 1005.7 |
| 20260509162809 | 50 | 235 | 2.6 | 2.6 | 0.00 | 0.00 | 0.00 | 54 | 1005.3 |
| 20260509162306 | 49 | 296 | 0.9 | 0.9 | 0.00 | 0.00 | 0.00 | 54 | 1005.1 |
| 20260509161759 | 49 | 17 | 4.3 | 5.2 | 0.00 | 0.00 | 0.00 | 53 | 1004.9 |
| 20260509161255 | 50 | 354 | 3.5 | 5.2 | 0.00 | 0.00 | 0.00 | 51 | 1004.8 |
| 20260509160750 | 49 | 339 | 3.5 | 4.3 | 0.00 | 0.00 | 0.00 | 53 | 1004.7 |
| 20260509160247 | 48 | 14 | 7.0 | 11.3 | 0.00 | 0.00 | 0.00 | 53 | 1004.8 |
| 20260509155742 | 49 | 292 | 2.6 | 4.3 | 0.00 | 0.00 | 0.00 | 52 | 1004.4 |
| 20260509155239 | 51 | 21 | 4.3 | 5.2 | 0.00 | 0.00 | 0.00 | 49 | 1004.5 |
| 20260509154735 | 49 | 270 | 4.3 | 7.0 | 0.00 | 0.00 | 0.00 | 49 | 1004.2 |
| 20260509154232 | 49 | 256 | 1.7 | 2.6 | 0.00 | 0.00 | 0.00 | 49 | 1004.2 |
| 20260509153729 | 49 | 347 | 3.5 | 5.2 | 0.00 | 0.00 | 0.00 | 49 | 1003.9 |
| 20260509153226 | 48 | 311 | 4.3 | 7.8 | 0.00 | 0.00 | 0.00 | 48 | 1003.9 |
| 20260509152722 | 49 | 282 | 4.3 | 7.0 | 0.00 | 0.00 | 0.00 | 47 | 1004.0 |
| 20260509152219 | 50 | 247 | 2.6 | 2.6 | 0.00 | 0.00 | 0.00 | 48 | 1003.7 |
| 20260509151715 | 49 | 342 | 5.2 | 7.0 | 0.00 | 0.00 | 0.00 | 47 | 1003.7 |
| 20260509151212 | 49 | 39 | 4.3 | 7.0 | 0.00 | 0.00 | 0.00 | 48 | 1003.4 |
| 20260509150710 | 48 | 7 | 1.7 | 4.3 | 0.00 | 0.00 | 0.00 | 50 | 1003.5 |
| 20260509150208 | 47 | 320 | 6.1 | 7.0 | 0.00 | 0.00 | 0.00 | 51 | 1003.5 |
| 20260509145704 | 48 | 309 | 2.6 | 4.3 | 0.00 | 0.00 | 0.00 | 50 | 1003.2 |
| 20260509145159 | 49 | 327 | 1.7 | 4.3 | 0.00 | 0.00 | 0.00 | 51 | 1003.3 |
| 20260509144656 | 48 | 330 | 5.2 | 8.7 | 0.00 | 0.00 | 0.00 | 50 | 1003.1 |
| 20260509144154 | 48 | 293 | 2.6 | 4.3 | 0.00 | 0.00 | 0.00 | 50 | 1003.0 |
| 20260509143651 | 49 | 270 | 1.7 | 1.7 | 0.00 | 0.00 | 0.00 | 51 | 1003.1 |
| 20260509143148 | 48 | 317 | 1.7 | 2.6 | 0.00 | 0.00 | 0.00 | 51 | 1002.8 |